CheckWX is a tool to help pilots better visualize weather data.  It is not intended as a substitute for an official pre-flight weather briefing.

10:09:00 UTC

KPGV METAR
Pitt-Greenville Airport
Greenville, North Carolina, USA
Current

34 mins ago

KPGV 070935Z AUTO 00000KT 7SM CLR 22/22 A3008 RMK AO2
Observed
Jul-7 @ 09:35 UTC
Visibility
7 SM
Flight Rules
VFR
Cloud Levels
  • Clear skies
Temperature
22°C / 72°F
Dewpoint
22°C / 72°F
Humidity
100%
Altimeter
30.08" Hg
Pressure
1018.62 hPa
Previous

54 mins ago

KPGV 070915Z AUTO 00000KT 1 1/4SM BR VV007 22/21 A3008 RMK AO2 VIS 3/4V3
Observed
Jul-7 @ 09:15 UTC
Visibility
Flight Rules
LIFR
Conditions
Mist
Cloud Levels
  • Vertical visibility
Temperature
22°C / 72°F
Dewpoint
21°C / 70°F
Humidity
94%
Altimeter
30.08" Hg
Pressure
1018.62 hPa
Previous

1 hour ago

KPGV 070855Z AUTO 00000KT 7SM CLR 22/22 A3008 RMK AO2
Observed
Jul-7 @ 08:55 UTC
Visibility
7 SM
Flight Rules
VFR
Cloud Levels
  • Clear skies
Temperature
22°C / 72°F
Dewpoint
22°C / 72°F
Humidity
100%
Altimeter
30.08" Hg
Pressure
1018.62 hPa